createdAt,value
2023-03-06T00:00:05.208Z,69.56
2023-03-06T00:00:56.556Z,69.44
2023-03-06T00:01:28.449Z,69.87
2023-03-06T00:02:00.145Z,69.93
2023-03-06T00:02:32.187Z,70.28
2023-03-06T00:03:04.659Z,70.19
2023-03-06T00:03:36.445Z,70.30
2023-03-06T00:04:08.619Z,71.01
2023-03-06T00:04:40.604Z,70.50
2023-03-06T00:05:13.951Z,70.62
2023-03-06T00:05:46.031Z,70.76
2023-03-06T00:06:17.793Z,70.98
2023-03-06T00:06:49.550Z,70.87
2023-03-06T00:07:21.266Z,71.15
2023-03-06T00:07:52.985Z,71.46
2023-03-06T00:08:26.980Z,71.04
2023-03-06T00:08:58.655Z,71.59
2023-03-06T00:09:30.343Z,71.28
2023-03-06T00:10:02.052Z,71.49
2023-03-06T00:10:34.797Z,71.83
2023-03-06T00:11:06.452Z,72.03
2023-03-06T00:11:38.244Z,71.87
2023-03-06T00:12:10.222Z,71.90
2023-03-06T00:12:42.765Z,72.19
2023-03-06T00:13:19.261Z,71.93
2023-03-06T00:13:51.004Z,72.34
2023-03-06T00:14:22.685Z,71.95
2023-03-06T00:14:54.396Z,72.10
2023-03-06T00:15:27.314Z,72.20
2023-03-06T00:16:01.069Z,72.00
2023-03-06T00:16:32.913Z,72.31
2023-03-06T00:17:04.718Z,72.17
2023-03-06T00:17:37.243Z,72.41
2023-03-06T00:18:09.317Z,72.44
2023-03-06T00:18:41.761Z,72.59
2023-03-06T00:19:13.527Z,72.32
2023-03-06T00:19:45.211Z,72.70
2023-03-06T00:20:17.771Z,72.71
2023-03-06T00:20:49.463Z,72.25
2023-03-06T00:21:21.183Z,72.64
2023-03-06T00:21:52.899Z,72.69
2023-03-06T00:22:24.636Z,72.70
2023-03-06T00:22:57.054Z,72.55
2023-03-06T00:23:29.184Z,72.80
2023-03-06T00:24:00.854Z,73.01
2023-03-06T00:24:32.603Z,73.05
2023-03-06T00:25:05.233Z,72.95
2023-03-06T00:25:41.738Z,73.47
2023-03-06T00:26:13.428Z,73.76
2023-03-06T00:27:03.449Z,73.59
2023-03-06T00:27:35.132Z,73.80
2023-03-06T00:28:06.833Z,73.86
2023-03-06T00:28:38.822Z,74.04
2023-03-06T00:29:10.824Z,73.79
2023-03-06T00:29:42.614Z,74.07
2023-03-06T00:30:20.383Z,74.05
2023-03-06T00:30:52.171Z,74.17
2023-03-06T00:31:23.880Z,74.40
2023-03-06T00:31:55.578Z,74.38
2023-03-06T00:32:28.598Z,74.47
2023-03-06T00:33:00.365Z,74.43
2023-03-06T00:33:32.055Z,74.92
2023-03-06T00:34:04.277Z,74.64
2023-03-06T00:34:35.977Z,75.00
2023-03-06T00:35:08.089Z,75.10
2023-03-06T00:35:40.843Z,74.97
2023-03-06T00:36:12.585Z,74.97
2023-03-06T00:36:44.298Z,75.02
2023-03-06T00:37:16.293Z,75.12
2023-03-06T00:37:48.536Z,75.18
2023-03-06T00:38:20.306Z,75.43
2023-03-06T00:38:52.004Z,75.52
2023-03-06T00:39:23.787Z,75.62
2023-03-06T00:39:55.467Z,75.59
2023-03-06T00:40:27.313Z,75.62
2023-03-06T00:40:59.148Z,75.97
2023-03-06T00:41:30.807Z,75.89
2023-03-06T00:42:02.528Z,75.79
2023-03-06T00:42:34.197Z,75.77
2023-03-06T00:43:05.954Z,75.96
2023-03-06T00:43:37.733Z,76.04
2023-03-06T00:44:09.387Z,76.14
2023-03-06T00:44:41.302Z,76.20
2023-03-06T00:45:13.335Z,76.46
2023-03-06T00:45:45.092Z,76.34
2023-03-06T00:46:16.838Z,76.61
2023-03-06T00:46:48.493Z,76.90
2023-03-06T00:47:20.237Z,77.09
2023-03-06T00:47:51.917Z,77.15
2023-03-06T00:48:23.641Z,76.82
2023-03-06T00:48:55.366Z,77.00
2023-03-06T00:49:27.328Z,76.99
2023-03-06T00:50:01.521Z,77.28
2023-03-06T00:50:34.117Z,77.20
2023-03-06T00:51:07.068Z,77.17
2023-03-06T00:51:38.768Z,77.25
2023-03-06T00:52:10.741Z,77.00
2023-03-06T00:52:42.600Z,77.28
2023-03-06T00:53:14.293Z,77.34
2023-03-06T00:53:46.048Z,77.29
2023-03-06T00:54:17.750Z,77.14
2023-03-06T00:54:49.510Z,77.29
2023-03-06T00:55:21.201Z,77.10
2023-03-06T00:55:52.975Z,77.47
2023-03-06T00:56:25.245Z,77.78
2023-03-06T00:56:56.991Z,77.65
2023-03-06T00:57:28.645Z,77.65
2023-03-06T00:58:00.335Z,77.65
2023-03-06T00:58:32.029Z,77.68
2023-03-06T00:59:03.721Z,77.76
2023-03-06T00:59:35.853Z,77.83
2023-03-06T01:00:09.128Z,78.20
2023-03-06T01:00:41.105Z,77.69
2023-03-06T01:01:13.925Z,77.46
2023-03-06T01:01:45.805Z,77.85
2023-03-06T01:02:17.540Z,77.81
2023-03-06T01:02:49.315Z,77.35
2023-03-06T01:03:22.082Z,77.92
2023-03-06T01:03:53.741Z,77.69
2023-03-06T01:04:26.019Z,77.66
2023-03-06T01:04:58.041Z,77.99
2023-03-06T01:05:31.078Z,77.82
2023-03-06T01:06:02.789Z,77.66
2023-03-06T01:06:34.473Z,77.24
2023-03-06T01:07:06.292Z,77.53
2023-03-06T01:07:38.020Z,77.41
2023-03-06T01:08:10.039Z,77.25
2023-03-06T01:08:41.724Z,77.13
2023-03-06T01:09:13.745Z,76.99
2023-03-06T01:09:45.413Z,76.99
2023-03-06T01:10:17.180Z,77.34
2023-03-06T01:10:48.933Z,77.22
2023-03-06T01:11:20.828Z,76.81
2023-03-06T01:11:52.602Z,76.75
2023-03-06T01:12:24.513Z,76.30
2023-03-06T01:12:56.309Z,76.75
2023-03-06T01:13:28.109Z,76.78
2023-03-06T01:13:59.895Z,76.57
2023-03-06T01:14:32.073Z,76.38
2023-03-06T01:15:05.210Z,76.58
2023-03-06T01:15:37.390Z,76.45
2023-03-06T01:16:14.937Z,76.29
2023-03-06T01:16:47.791Z,76.27
2023-03-06T01:17:19.473Z,75.98
2023-03-06T01:17:54.865Z,75.83
2023-03-06T01:18:26.602Z,75.81
2023-03-06T01:18:58.765Z,75.57
2023-03-06T01:19:30.740Z,76.60
2023-03-06T01:20:02.675Z,75.95
2023-03-06T01:20:34.620Z,75.86
2023-03-06T01:21:07.097Z,75.81
2023-03-06T01:21:38.989Z,75.58
2023-03-06T01:22:10.676Z,75.37
2023-03-06T01:22:42.677Z,75.28
2023-03-06T01:23:14.366Z,75.46
2023-03-06T01:23:46.200Z,75.17
2023-03-06T01:24:17.857Z,74.85
2023-03-06T01:24:49.530Z,74.99
2023-03-06T01:25:21.475Z,74.75
2023-03-06T01:25:53.179Z,74.56
2023-03-06T01:26:24.880Z,74.61
2023-03-06T01:26:56.633Z,74.52
2023-03-06T01:27:28.380Z,74.47
2023-03-06T01:28:00.118Z,74.04
2023-03-06T01:28:34.026Z,73.95
2023-03-06T01:29:06.447Z,74.16
2023-03-06T01:29:38.149Z,74.14
2023-03-06T01:30:10.251Z,74.17
2023-03-06T01:30:42.233Z,73.99
2023-03-06T01:31:14.025Z,73.75
2023-03-06T01:31:45.780Z,73.83
2023-03-06T01:32:17.628Z,74.43
2023-03-06T01:32:49.379Z,74.63
2023-03-06T01:33:21.276Z,74.75
2023-03-06T01:33:53.408Z,74.91
2023-03-06T01:34:25.145Z,74.70
2023-03-06T01:34:56.915Z,74.77
2023-03-06T01:35:28.687Z,74.81
2023-03-06T01:36:00.599Z,75.01
2023-03-06T01:36:32.318Z,75.29
2023-03-06T01:37:04.017Z,74.96
2023-03-06T01:37:37.342Z,74.80
2023-03-06T01:38:11.576Z,74.46
2023-03-06T01:38:43.570Z,74.93
2023-03-06T01:39:15.288Z,74.77
2023-03-06T01:39:47.069Z,75.14
2023-03-06T01:40:18.803Z,74.79
2023-03-06T01:40:50.500Z,74.61
2023-03-06T01:41:22.245Z,74.69
2023-03-06T01:41:54.289Z,74.87
2023-03-06T01:42:26.018Z,74.74
2023-03-06T01:42:57.674Z,74.64
2023-03-06T01:43:34.717Z,74.50
2023-03-06T01:44:06.440Z,74.44
2023-03-06T01:45:02.231Z,74.63
2023-03-06T01:45:33.891Z,74.39
2023-03-06T01:46:24.254Z,74.23
2023-03-06T01:46:55.967Z,74.40
2023-03-06T01:47:27.920Z,74.21
2023-03-06T01:47:59.585Z,74.30
2023-03-06T01:48:31.365Z,74.51
2023-03-06T01:49:12.165Z,74.44
2023-03-06T01:49:43.865Z,74.04
2023-03-06T01:50:15.958Z,74.47
2023-03-06T01:50:48.835Z,74.05
2023-03-06T01:51:21.705Z,74.51
2023-03-06T01:52:03.607Z,74.13
2023-03-06T01:52:43.369Z,74.24
2023-03-06T01:53:15.744Z,73.80
2023-03-06T01:53:50.528Z,74.03
2023-03-06T01:54:29.535Z,73.93
2023-03-06T01:55:10.739Z,73.65
2023-03-06T01:55:42.918Z,73.59
2023-03-06T01:56:15.819Z,73.70
2023-03-06T01:56:50.486Z,73.62
2023-03-06T01:57:26.804Z,73.51
2023-03-06T01:58:03.736Z,73.33
2023-03-06T01:58:36.403Z,73.35
2023-03-06T01:59:08.325Z,73.34
2023-03-06T01:59:42.618Z,72.82
2023-03-06T02:00:18.507Z,72.93
2023-03-06T02:00:50.294Z,72.81
2023-03-06T02:01:22.158Z,72.99
2023-03-06T02:01:55.306Z,72.82
2023-03-06T02:02:27.194Z,72.38
2023-03-06T02:03:10.132Z,72.19
2023-03-06T02:03:43.487Z,72.08
2023-03-06T02:04:17.236Z,71.96
2023-03-06T02:04:49.030Z,72.01
2023-03-06T02:05:21.042Z,71.92
2023-03-06T02:05:53.204Z,71.50
2023-03-06T02:06:25.198Z,71.44
2023-03-06T02:07:00.526Z,71.31
2023-03-06T02:07:33.665Z,71.30
2023-03-06T02:08:06.881Z,71.48
2023-03-06T02:08:39.743Z,71.30
2023-03-06T02:09:14.163Z,71.36
2023-03-06T02:09:46.330Z,70.99
2023-03-06T02:10:19.572Z,70.85
2023-03-06T02:11:17.658Z,71.16
2023-03-06T02:11:49.437Z,70.83
2023-03-06T02:12:23.019Z,70.75
2023-03-06T02:12:54.914Z,70.73
2023-03-06T02:13:26.776Z,70.65
2023-03-06T02:13:58.637Z,70.64
2023-03-06T02:14:30.539Z,71.01
2023-03-06T02:15:02.443Z,70.82
2023-03-06T02:15:34.172Z,70.73
2023-03-06T02:16:07.248Z,70.94
2023-03-06T02:16:41.931Z,70.83
2023-03-06T02:17:17.040Z,70.83
2023-03-06T02:17:51.420Z,70.95
2023-03-06T02:18:23.144Z,70.85
2023-03-06T02:18:55.547Z,70.97
2023-03-06T02:19:51.531Z,70.77
2023-03-06T02:20:33.633Z,70.89
2023-03-06T02:21:09.509Z,70.79
2023-03-06T02:21:41.268Z,70.82
2023-03-06T02:22:12.987Z,70.76
2023-03-06T02:23:03.157Z,70.83
2023-03-06T02:23:58.513Z,70.64
2023-03-06T02:25:03.420Z,70.55
2023-03-06T02:25:42.053Z,70.65
2023-03-06T02:26:15.020Z,70.68
2023-03-06T02:26:48.405Z,70.85
2023-03-06T02:27:21.247Z,70.80
2023-03-06T02:27:52.923Z,71.04
2023-03-06T02:28:25.157Z,70.75
2023-03-06T02:28:59.278Z,70.88
2023-03-06T02:29:31.813Z,71.39
2023-03-06T02:30:09.513Z,71.14
2023-03-06T02:30:45.417Z,70.88
2023-03-06T02:31:27.375Z,71.30
2023-03-06T02:31:59.245Z,70.94
2023-03-06T02:32:31.054Z,71.43
2023-03-06T02:33:04.357Z,71.23
2023-03-06T02:33:36.101Z,71.46
2023-03-06T02:34:17.058Z,71.45
2023-03-06T02:34:55.990Z,71.54
2023-03-06T02:35:31.405Z,70.97
2023-03-06T02:36:06.091Z,70.97
2023-03-06T02:36:43.346Z,71.17
2023-03-06T02:37:15.253Z,71.26
2023-03-06T02:37:47.084Z,71.01
2023-03-06T02:38:22.544Z,71.02
2023-03-06T02:38:54.585Z,71.02
2023-03-06T02:39:31.818Z,71.04
2023-03-06T02:40:09.459Z,71.32
2023-03-06T02:40:44.785Z,71.00
2023-03-06T02:41:16.742Z,71.10
2023-03-06T02:41:48.594Z,71.19
2023-03-06T02:42:24.348Z,71.10
2023-03-06T02:42:58.505Z,71.24
2023-03-06T02:43:35.036Z,71.22
2023-03-06T02:44:06.748Z,71.09
2023-03-06T02:44:38.663Z,71.01
2023-03-06T02:45:14.224Z,71.12
2023-03-06T02:45:48.718Z,70.94
2023-03-06T02:46:20.734Z,70.85
2023-03-06T02:46:52.466Z,70.56
2023-03-06T02:47:24.154Z,71.17
2023-03-06T02:47:55.834Z,71.01
2023-03-06T02:48:27.657Z,71.12
2023-03-06T02:48:59.418Z,70.45
2023-03-06T02:49:31.102Z,70.87
2023-03-06T02:50:02.846Z,71.04
2023-03-06T02:50:34.819Z,70.77
2023-03-06T02:51:06.898Z,71.04
2023-03-06T02:51:38.587Z,70.87
2023-03-06T02:52:10.299Z,70.82
2023-03-06T02:52:41.957Z,70.85
2023-03-06T02:53:16.773Z,71.10
2023-03-06T02:53:48.454Z,70.99
2023-03-06T02:54:20.158Z,71.04
2023-03-06T02:54:51.892Z,70.86
2023-03-06T02:55:23.970Z,71.08
2023-03-06T02:55:55.685Z,71.06
2023-03-06T02:56:28.512Z,70.74
2023-03-06T02:57:00.203Z,70.90
2023-03-06T02:57:31.861Z,70.82
2023-03-06T02:58:04.073Z,70.85
2023-03-06T02:58:35.774Z,70.93
2023-03-06T02:59:07.520Z,71.17
2023-03-06T02:59:39.274Z,71.39
2023-03-06T03:00:11.819Z,71.14
2023-03-06T03:00:43.546Z,71.02
2023-03-06T03:01:15.412Z,71.07
2023-03-06T03:01:47.878Z,71.71
2023-03-06T03:02:19.694Z,72.00
2023-03-06T03:02:51.635Z,71.77
2023-03-06T03:03:23.373Z,71.55
2023-03-06T03:03:57.120Z,71.67
2023-03-06T03:04:28.839Z,71.48
2023-03-06T03:05:00.558Z,70.98
2023-03-06T03:05:32.689Z,71.07
2023-03-06T03:06:06.008Z,70.87
2023-03-06T03:06:37.754Z,71.02
2023-03-06T03:07:09.455Z,70.93
2023-03-06T03:07:41.362Z,70.72
2023-03-06T03:08:13.288Z,70.97
2023-03-06T03:08:45.015Z,70.76
2023-03-06T03:09:16.698Z,70.91
2023-03-06T03:09:48.464Z,71.04
2023-03-06T03:10:20.305Z,71.10
2023-03-06T03:10:52.034Z,70.85
2023-03-06T03:11:23.706Z,70.68
2023-03-06T03:11:55.818Z,70.56
2023-03-06T03:12:28.816Z,70.48
2023-03-06T03:13:00.773Z,70.38
2023-03-06T03:13:32.826Z,70.50
2023-03-06T03:14:04.562Z,70.37
2023-03-06T03:14:36.360Z,70.55
2023-03-06T03:15:10.121Z,70.36
2023-03-06T03:15:41.976Z,70.33
2023-03-06T03:16:18.310Z,70.17
2023-03-06T03:16:50.062Z,70.06
2023-03-06T03:17:22.885Z,69.70
2023-03-06T03:17:54.597Z,70.01
2023-03-06T03:18:26.528Z,69.81
2023-03-06T03:18:58.212Z,69.73
2023-03-06T03:19:30.267Z,69.74
2023-03-06T03:20:01.972Z,69.51
2023-03-06T03:20:33.769Z,69.25
2023-03-06T03:21:10.468Z,69.36
2023-03-06T03:21:42.261Z,69.16
2023-03-06T03:22:13.991Z,69.27
2023-03-06T03:22:49.988Z,68.76
2023-03-06T03:23:22.220Z,68.90
2023-03-06T03:23:53.911Z,68.80
2023-03-06T03:24:25.867Z,68.92
2023-03-06T03:24:57.672Z,69.01
2023-03-06T03:25:29.533Z,68.97
2023-03-06T03:26:13.909Z,68.50
2023-03-06T03:26:45.660Z,68.67
2023-03-06T03:27:17.401Z,68.72
2023-03-06T03:27:49.099Z,68.80
2023-03-06T03:28:20.849Z,68.79
2023-03-06T03:28:52.531Z,68.69
2023-03-06T03:29:24.835Z,68.51
2023-03-06T03:30:00.552Z,68.56
2023-03-06T03:30:32.287Z,68.73
2023-03-06T03:31:09.431Z,68.55
2023-03-06T03:31:41.104Z,68.63
2023-03-06T03:32:12.825Z,68.43
2023-03-06T03:32:44.576Z,68.31
2023-03-06T03:33:16.305Z,68.64
2023-03-06T03:33:47.991Z,68.95
2023-03-06T03:34:19.648Z,68.20
2023-03-06T03:34:51.673Z,68.37
2023-03-06T03:35:23.409Z,68.18
2023-03-06T03:35:59.521Z,68.78
2023-03-06T03:36:31.294Z,68.32
2023-03-06T03:37:03.027Z,68.34
2023-03-06T03:37:34.897Z,68.28
2023-03-06T03:38:06.574Z,68.49
2023-03-06T03:38:38.274Z,68.25
2023-03-06T03:39:10.311Z,68.26
2023-03-06T03:39:42.106Z,68.36
2023-03-06T03:40:13.932Z,68.60
2023-03-06T03:40:45.680Z,68.66
2023-03-06T03:41:17.376Z,68.44
2023-03-06T03:41:49.148Z,68.53
2023-03-06T03:42:20.952Z,68.78
2023-03-06T03:42:52.796Z,68.66
2023-03-06T03:43:24.486Z,68.67
2023-03-06T03:43:56.164Z,68.55
2023-03-06T03:44:27.855Z,68.63
2023-03-06T03:44:59.583Z,68.30
2023-03-06T03:45:31.296Z,68.32
2023-03-06T03:46:03.120Z,68.47
2023-03-06T03:46:34.943Z,68.09
2023-03-06T03:47:06.860Z,68.58
2023-03-06T03:47:38.792Z,68.50
2023-03-06T03:48:10.661Z,68.36
2023-03-06T03:48:42.481Z,68.58
2023-03-06T03:49:15.131Z,68.97
2023-03-06T03:49:46.840Z,68.41
2023-03-06T03:50:18.960Z,68.81
2023-03-06T03:50:50.700Z,68.77
2023-03-06T03:51:22.704Z,68.95
2023-03-06T03:51:54.381Z,69.01
2023-03-06T03:52:26.317Z,69.06
2023-03-06T03:52:58.018Z,69.01
2023-03-06T03:53:29.717Z,68.98
2023-03-06T03:54:01.513Z,68.94
2023-03-06T03:54:33.847Z,68.97
2023-03-06T03:55:06.147Z,68.59
2023-03-06T03:55:37.932Z,68.66
2023-03-06T03:56:10.662Z,68.98
2023-03-06T03:56:42.453Z,68.98
2023-03-06T03:57:14.242Z,69.22
2023-03-06T03:57:45.983Z,68.97
2023-03-06T03:58:17.670Z,69.16
2023-03-06T03:58:49.425Z,69.17
2023-03-06T03:59:21.226Z,69.03
2023-03-06T03:59:53.174Z,69.11
2023-03-06T04:00:24.950Z,69.00
2023-03-06T04:00:56.705Z,69.49
2023-03-06T04:01:28.498Z,69.08
2023-03-06T04:02:00.286Z,69.77
2023-03-06T04:02:31.963Z,69.54
2023-03-06T04:03:03.788Z,69.31
2023-03-06T04:03:36.023Z,69.60
2023-03-06T04:04:08.382Z,69.68
2023-03-06T04:04:40.145Z,69.48
2023-03-06T04:05:14.768Z,69.21
2023-03-06T04:05:46.666Z,69.21
2023-03-06T04:06:18.510Z,69.45
2023-03-06T04:06:50.203Z,69.75
2023-03-06T04:07:21.951Z,69.52
2023-03-06T04:07:53.675Z,69.45
2023-03-06T04:08:26.762Z,69.35
2023-03-06T04:08:59.116Z,69.31
2023-03-06T04:09:30.820Z,69.03
2023-03-06T04:10:02.501Z,69.10
2023-03-06T04:10:34.489Z,69.22
2023-03-06T04:11:06.766Z,69.15
2023-03-06T04:11:38.885Z,69.23
2023-03-06T04:12:10.689Z,69.10
2023-03-06T04:12:42.607Z,69.21
2023-03-06T04:13:14.452Z,69.13
2023-03-06T04:13:46.364Z,69.22
2023-03-06T04:14:18.069Z,69.17
2023-03-06T04:14:50.040Z,69.44
2023-03-06T04:15:21.729Z,69.02
2023-03-06T04:15:54.617Z,68.97
2023-03-06T04:16:26.426Z,69.02
2023-03-06T04:16:58.195Z,68.96
2023-03-06T04:17:29.944Z,68.74
2023-03-06T04:18:01.747Z,68.88
2023-03-06T04:18:33.504Z,68.68
2023-03-06T04:19:05.224Z,69.04
2023-03-06T04:19:36.952Z,68.86
2023-03-06T04:20:09.425Z,68.60
2023-03-06T04:20:41.324Z,68.33
2023-03-06T04:21:13.372Z,68.63
2023-03-06T04:21:45.169Z,68.60
2023-03-06T04:22:16.820Z,68.79
2023-03-06T04:22:48.744Z,68.53
2023-03-06T04:23:20.893Z,68.58
2023-03-06T04:23:52.558Z,68.43
2023-03-06T04:24:25.128Z,68.63
2023-03-06T04:24:56.814Z,68.33
2023-03-06T04:25:29.575Z,68.43
2023-03-06T04:26:01.333Z,68.46
2023-03-06T04:26:33.062Z,68.65
2023-03-06T04:27:05.109Z,68.50
2023-03-06T04:27:38.172Z,68.38
2023-03-06T04:28:10.249Z,68.35
2023-03-06T04:28:41.972Z,68.69
2023-03-06T04:29:13.642Z,68.22
2023-03-06T04:29:45.364Z,68.45
2023-03-06T04:30:17.121Z,68.38
2023-03-06T04:30:48.910Z,68.15
2023-03-06T04:31:20.699Z,68.26
2023-03-06T04:31:52.438Z,68.32
2023-03-06T04:32:24.421Z,68.50
2023-03-06T04:32:56.093Z,68.30
2023-03-06T04:33:27.921Z,68.47
2023-03-06T04:33:59.717Z,68.42
2023-03-06T04:34:31.591Z,68.30
2023-03-06T04:35:03.339Z,68.12
2023-03-06T04:35:35.748Z,68.37
2023-03-06T04:36:07.792Z,68.77
2023-03-06T04:36:41.545Z,68.05
2023-03-06T04:37:25.092Z,67.85
2023-03-06T04:37:57.269Z,68.13
2023-03-06T04:38:28.964Z,68.10
2023-03-06T04:39:02.096Z,68.38
2023-03-06T04:39:33.800Z,68.21
2023-03-06T04:40:06.022Z,68.10
2023-03-06T04:40:38.247Z,68.49
2023-03-06T04:41:10.066Z,68.03
2023-03-06T04:41:42.704Z,68.59
2023-03-06T04:42:14.734Z,67.92
2023-03-06T04:42:46.423Z,68.18
2023-03-06T04:43:18.242Z,68.21
2023-03-06T04:43:50.359Z,68.37
2023-03-06T04:44:22.059Z,68.00
2023-03-06T04:44:53.785Z,68.17
2023-03-06T04:45:27.178Z,68.49
2023-03-06T04:45:59.008Z,68.27
2023-03-06T04:46:30.702Z,68.27
2023-03-06T04:47:02.390Z,68.04
2023-03-06T04:47:34.085Z,68.31
2023-03-06T04:48:06.083Z,68.01
2023-03-06T04:48:38.016Z,68.14
2023-03-06T04:49:09.990Z,68.07
2023-03-06T04:49:43.188Z,68.03
2023-03-06T04:50:16.673Z,68.50
2023-03-06T04:50:48.425Z,68.12
2023-03-06T04:51:20.164Z,68.26
2023-03-06T04:51:51.842Z,68.68
2023-03-06T04:52:23.557Z,68.56
2023-03-06T04:52:55.294Z,68.07
2023-03-06T04:53:26.996Z,68.06
2023-03-06T04:53:58.776Z,68.43
2023-03-06T04:54:30.529Z,68.25
2023-03-06T04:55:08.536Z,68.24
2023-03-06T04:55:40.232Z,68.07
2023-03-06T04:56:11.881Z,68.03
2023-03-06T04:56:43.557Z,68.09
2023-03-06T04:57:16.113Z,68.06
2023-03-06T04:57:48.103Z,68.50
2023-03-06T04:58:20.882Z,68.11
2023-03-06T04:58:52.538Z,68.04
2023-03-06T04:59:24.214Z,67.95
2023-03-06T04:59:55.898Z,67.85
2023-03-06T05:00:30.686Z,67.90
2023-03-06T05:01:03.103Z,67.85
2023-03-06T05:01:34.847Z,68.09
2023-03-06T05:02:06.605Z,70.63
2023-03-06T05:02:38.305Z,71.83
2023-03-06T05:03:12.598Z,78.36
2023-03-06T05:03:44.283Z,81.02
2023-03-06T05:04:15.997Z,75.77
2023-03-06T05:04:47.676Z,74.10
2023-03-06T05:05:19.443Z,75.76
2023-03-06T05:05:51.116Z,79.42
2023-03-06T05:06:22.823Z,77.04
2023-03-06T05:06:54.499Z,78.75
2023-03-06T05:07:26.260Z,75.91
2023-03-06T05:07:58.006Z,75.58
2023-03-06T05:08:29.787Z,69.58
2023-03-06T05:09:01.500Z,68.26
2023-03-06T05:09:34.570Z,68.21
2023-03-06T05:10:07.158Z,67.91
2023-03-06T05:10:38.871Z,67.28
2023-03-06T05:11:10.591Z,66.43
2023-03-06T05:11:42.290Z,66.94
2023-03-06T05:12:24.406Z,66.45
2023-03-06T05:12:56.090Z,66.29
2023-03-06T05:13:28.356Z,67.15
2023-03-06T05:14:00.045Z,66.65
2023-03-06T05:14:33.100Z,66.75
2023-03-06T05:15:07.527Z,66.57
2023-03-06T05:15:42.164Z,66.68
2023-03-06T05:16:14.036Z,66.62
2023-03-06T05:16:45.920Z,66.62
2023-03-06T05:17:17.826Z,66.37
2023-03-06T05:17:49.682Z,66.81
2023-03-06T05:18:21.945Z,66.60
2023-03-06T05:18:53.685Z,66.75
2023-03-06T05:19:25.445Z,66.52
2023-03-06T05:19:57.143Z,66.88
2023-03-06T05:20:28.884Z,66.41
2023-03-06T05:21:00.877Z,66.28
2023-03-06T05:21:32.567Z,66.43
2023-03-06T05:22:04.259Z,72.01
2023-03-06T05:22:36.159Z,76.60
2023-03-06T05:23:07.861Z,76.07
2023-03-06T05:23:39.746Z,78.27
2023-03-06T05:24:11.545Z,79.65
2023-03-06T05:24:43.278Z,78.31
2023-03-06T05:25:16.364Z,78.77
2023-03-06T05:25:48.053Z,77.05
2023-03-06T05:26:20.054Z,73.53
2023-03-06T05:26:51.864Z,70.79
2023-03-06T05:27:23.628Z,68.10
2023-03-06T05:27:55.373Z,66.76
2023-03-06T05:28:28.703Z,66.13
2023-03-06T05:29:00.519Z,65.52
2023-03-06T05:29:32.209Z,65.25
2023-03-06T05:30:04.469Z,65.14
2023-03-06T05:30:36.283Z,65.22
2023-03-06T05:31:08.510Z,64.85
2023-03-06T05:31:40.249Z,65.02
2023-03-06T05:32:12.107Z,65.27
2023-03-06T05:32:44.192Z,65.49
2023-03-06T05:33:16.047Z,65.79
2023-03-06T05:33:47.742Z,65.47
2023-03-06T05:34:19.439Z,66.04
2023-03-06T05:34:51.154Z,65.37
2023-03-06T05:35:23.657Z,65.66
2023-03-06T05:35:55.537Z,65.63
2023-03-06T05:36:27.231Z,65.83
2023-03-06T05:37:01.813Z,66.35
2023-03-06T05:37:33.706Z,66.11
2023-03-06T05:38:05.439Z,66.52
2023-03-06T05:38:37.203Z,66.60
2023-03-06T05:39:09.597Z,66.68
2023-03-06T05:39:41.452Z,66.87
2023-03-06T05:40:14.512Z,66.68
2023-03-06T05:40:46.363Z,66.81
2023-03-06T05:41:18.148Z,67.26
2023-03-06T05:41:49.846Z,67.32
2023-03-06T05:42:21.637Z,67.22
2023-03-06T05:42:53.403Z,67.37
2023-03-06T05:43:25.110Z,67.56
2023-03-06T05:43:57.054Z,67.54
2023-03-06T05:44:36.018Z,67.55
2023-03-06T05:45:08.336Z,67.99
2023-03-06T05:45:40.814Z,67.88
2023-03-06T05:46:12.668Z,67.65
2023-03-06T05:46:44.449Z,68.22
2023-03-06T05:47:16.204Z,68.23
2023-03-06T05:47:47.965Z,68.11
2023-03-06T05:48:19.654Z,68.27
2023-03-06T05:48:54.125Z,68.68
2023-03-06T05:49:26.692Z,77.05
2023-03-06T05:49:58.713Z,71.33
2023-03-06T05:50:30.398Z,69.62
2023-03-06T05:51:03.535Z,68.76
2023-03-06T05:51:35.265Z,69.02
2023-03-06T05:52:08.161Z,68.75
2023-03-06T05:52:40.166Z,68.56
2023-03-06T05:53:11.966Z,68.48
2023-03-06T05:53:43.754Z,67.82
2023-03-06T05:54:15.508Z,67.57
2023-03-06T05:54:51.256Z,67.49
2023-03-06T05:55:24.475Z,67.35
2023-03-06T05:56:01.443Z,67.30
2023-03-06T05:56:33.890Z,67.33
2023-03-06T05:57:06.594Z,67.24
2023-03-06T05:57:38.418Z,66.74
2023-03-06T05:58:10.264Z,67.04
2023-03-06T05:58:42.083Z,66.76
2023-03-06T05:59:13.764Z,66.78
2023-03-06T05:59:46.487Z,66.18
2023-03-06T06:00:18.914Z,66.09
2023-03-06T06:00:52.142Z,66.15
2023-03-06T06:01:25.450Z,65.94
2023-03-06T06:01:57.865Z,65.35
2023-03-06T06:02:29.668Z,65.82
2023-03-06T06:03:02.243Z,65.70
2023-03-06T06:03:33.936Z,66.25
2023-03-06T06:04:05.660Z,65.62
2023-03-06T06:04:37.342Z,66.10
2023-03-06T06:05:12.904Z,65.73
2023-03-06T06:05:44.892Z,65.95
2023-03-06T06:06:16.686Z,65.52
2023-03-06T06:06:52.731Z,65.70
2023-03-06T06:07:24.419Z,66.15
2023-03-06T06:07:56.143Z,65.97
2023-03-06T06:08:27.884Z,65.78
2023-03-06T06:09:01.110Z,65.75
2023-03-06T06:09:32.884Z,65.51
2023-03-06T06:10:06.780Z,65.30
2023-03-06T06:10:39.581Z,65.40
2023-03-06T06:11:13.116Z,65.27
2023-03-06T06:11:45.931Z,64.93
2023-03-06T06:12:21.741Z,65.65
2023-03-06T06:12:53.414Z,65.71
2023-03-06T06:13:25.113Z,65.25
2023-03-06T06:13:56.869Z,65.42
2023-03-06T06:14:29.400Z,65.38
2023-03-06T06:15:01.170Z,65.12
2023-03-06T06:15:33.868Z,64.95
2023-03-06T06:16:22.689Z,64.65
2023-03-06T06:16:54.903Z,65.13
2023-03-06T06:17:26.648Z,65.01
2023-03-06T06:17:58.518Z,64.93
2023-03-06T06:18:31.251Z,64.60
2023-03-06T06:19:03.178Z,64.71
2023-03-06T06:19:35.247Z,64.94
2023-03-06T06:20:07.654Z,64.84
2023-03-06T06:20:39.621Z,64.89
2023-03-06T06:21:13.462Z,64.60
2023-03-06T06:21:59.025Z,64.45
2023-03-06T06:22:33.834Z,64.72
2023-03-06T06:23:06.531Z,64.74
2023-03-06T06:23:38.449Z,64.86
2023-03-06T06:24:10.285Z,65.21
2023-03-06T06:24:42.290Z,65.13
2023-03-06T06:25:14.840Z,65.02
2023-03-06T06:25:46.680Z,64.89
2023-03-06T06:26:18.359Z,65.16
2023-03-06T06:26:52.080Z,64.89
2023-03-06T06:27:23.774Z,64.81
2023-03-06T06:27:56.683Z,64.71
2023-03-06T06:28:29.726Z,64.84
2023-03-06T06:29:03.438Z,64.77
2023-03-06T06:29:35.634Z,64.63
2023-03-06T06:30:10.823Z,64.63
2023-03-06T06:30:43.082Z,64.24
2023-03-06T06:31:15.166Z,64.86
2023-03-06T06:31:54.151Z,64.13
2023-03-06T06:32:27.402Z,64.44
2023-03-06T06:33:00.028Z,64.13
2023-03-06T06:33:32.363Z,64.27
2023-03-06T06:34:09.371Z,63.74
2023-03-06T06:34:41.058Z,63.45
2023-03-06T06:35:12.825Z,63.40
2023-03-06T06:35:44.526Z,62.24
2023-03-06T06:36:18.527Z,62.23
2023-03-06T06:36:53.529Z,60.51
2023-03-06T06:37:26.160Z,59.71
2023-03-06T06:37:57.904Z,59.08
2023-03-06T06:38:29.596Z,57.86
2023-03-06T06:39:01.635Z,56.88
2023-03-06T06:39:33.371Z,57.25
2023-03-06T06:40:05.987Z,57.37
2023-03-06T06:40:37.645Z,58.12
2023-03-06T06:41:38.777Z,56.78
2023-03-06T06:42:28.156Z,53.47
2023-03-06T06:42:56.579Z,52.55
2023-03-06T06:43:28.418Z,51.98
2023-03-06T06:44:00.957Z,51.41
2023-03-06T06:44:32.634Z,50.34
2023-03-06T06:45:05.432Z,49.30
2023-03-06T06:45:37.677Z,49.52
2023-03-06T06:46:38.816Z,50.61
2023-03-06T06:47:24.014Z,52.18
2023-03-06T06:47:52.682Z,53.56
2023-03-06T06:48:24.626Z,52.30
2023-03-06T06:48:56.302Z,50.51
2023-03-06T06:49:28.214Z,48.95
2023-03-06T06:50:00.071Z,50.16
2023-03-06T06:50:32.027Z,50.45
2023-03-06T06:51:04.510Z,51.45
2023-03-06T06:51:37.644Z,52.13
2023-03-06T06:52:10.403Z,51.89
2023-03-06T06:52:42.280Z,52.39
2023-03-06T06:53:14.409Z,51.46
2023-03-06T06:53:46.169Z,49.70
2023-03-06T06:54:18.803Z,48.61
2023-03-06T06:54:50.907Z,47.36
2023-03-06T06:55:25.458Z,46.25
2023-03-06T06:55:59.429Z,45.72
2023-03-06T06:56:31.225Z,44.15
2023-03-06T06:57:02.956Z,44.38
2023-03-06T06:57:34.712Z,46.07
2023-03-06T06:58:06.424Z,46.67
2023-03-06T06:58:38.074Z,47.13
2023-03-06T06:59:16.723Z,48.04
2023-03-06T06:59:50.198Z,49.75
2023-03-06T07:00:27.337Z,49.96
2023-03-06T07:01:14.508Z,50.59
2023-03-06T07:01:47.652Z,51.38
2023-03-06T07:02:19.542Z,52.19
2023-03-06T07:02:51.516Z,52.55
2023-03-06T07:03:23.818Z,53.15
2023-03-06T07:03:56.836Z,53.41